createdAt,value
2019-03-30T00:00:04.465Z,0
2019-03-30T00:01:04.254Z,0
2019-03-30T00:02:05.191Z,0
2019-03-30T00:03:05.678Z,0
2019-03-30T00:04:06.152Z,0
2019-03-30T00:05:07.190Z,0
2019-03-30T00:06:08.793Z,0
2019-03-30T00:07:08.826Z,0
2019-03-30T00:08:09.405Z,0
2019-03-30T00:09:10.448Z,0
2019-03-30T00:10:11.208Z,0
2019-03-30T00:11:11.686Z,0
2019-03-30T00:12:12.462Z,0
2019-03-30T00:13:11.945Z,0
2019-03-30T00:14:13.037Z,0
2019-03-30T00:15:12.796Z,0
2019-03-30T00:16:13.284Z,0
2019-03-30T00:17:14.082Z,0
2019-03-30T00:18:15.122Z,0
2019-03-30T00:19:15.982Z,0
2019-03-30T00:20:16.748Z,0
2019-03-30T00:21:16.963Z,0
2019-03-30T00:22:18.718Z,0
2019-03-30T00:23:18.477Z,0
2019-03-30T00:24:19.511Z,0
2019-03-30T00:25:19.991Z,0
2019-03-30T00:26:20.196Z,0
2019-03-30T00:27:21.230Z,0
2019-03-30T00:28:22.273Z,0
2019-03-30T00:29:23.027Z,0
2019-03-30T00:30:23.508Z,0
2019-03-30T00:31:24.822Z,0
2019-03-30T00:32:24.750Z,0
2019-03-30T00:33:25.513Z,0
2019-03-30T00:34:26.271Z,0
2019-03-30T00:35:27.034Z,0
2019-03-30T00:36:27.793Z,0
2019-03-30T00:37:28.552Z,0
2019-03-30T00:38:29.032Z,0
2019-03-30T00:39:29.560Z,0
2019-03-30T00:40:30.312Z,0
2019-03-30T00:41:30.512Z,0
2019-03-30T00:42:31.506Z,0
2019-03-30T00:43:31.987Z,0
2019-03-30T00:44:32.187Z,0
2019-03-30T00:45:32.393Z,0
2019-03-30T00:46:32.961Z,0
2019-03-30T00:47:34.019Z,0
2019-03-30T00:48:34.493Z,0
2019-03-30T00:49:56.150Z,0
2019-03-30T00:50:55.795Z,0
2019-03-30T00:51:57.111Z,0
2019-03-30T00:52:56.870Z,0
2019-03-30T00:53:57.626Z,0
2019-03-30T00:54:57.826Z,0
2019-03-30T00:55:58.582Z,0
2019-03-30T00:56:59.343Z,0
2019-03-30T00:58:00.097Z,0
2019-03-30T00:59:01.420Z,0
2019-03-30T01:00:02.455Z,0
2019-03-30T01:01:02.966Z,0
2019-03-30T01:02:03.740Z,0
2019-03-30T01:03:04.519Z,0
2019-03-30T01:04:05.291Z,0
2019-03-30T01:05:06.046Z,0
2019-03-30T01:06:06.831Z,0
2019-03-30T01:07:07.311Z,0
2019-03-30T01:08:08.070Z,0
2019-03-30T01:09:08.270Z,0
2019-03-30T01:10:09.033Z,0
2019-03-30T01:11:08.778Z,0
2019-03-30T01:12:08.987Z,0
2019-03-30T01:13:09.744Z,0
2019-03-30T01:14:09.947Z,0
2019-03-30T01:15:11.273Z,0
2019-03-30T01:16:12.037Z,0
2019-03-30T01:17:12.510Z,0
2019-03-30T01:18:13.272Z,0
2019-03-30T01:19:13.474Z,0
2019-03-30T01:20:14.227Z,0
2019-03-30T01:21:15.157Z,0
2019-03-30T01:22:15.951Z,0
2019-03-30T01:23:16.448Z,0
2019-03-30T01:24:17.209Z,0
2019-03-30T01:25:17.691Z,0
2019-03-30T01:26:18.175Z,0
2019-03-30T01:27:18.663Z,0
2019-03-30T01:28:19.697Z,0
2019-03-30T01:29:20.470Z,0
2019-03-30T01:30:25.684Z,0
2019-03-30T01:31:26.805Z,0
2019-03-30T01:32:27.125Z,0
2019-03-30T01:33:28.164Z,0
2019-03-30T01:34:28.927Z,0
2019-03-30T01:35:30.574Z,0
2019-03-30T01:36:30.369Z,0
2019-03-30T01:37:30.851Z,0
2019-03-30T01:38:31.329Z,0
2019-03-30T01:39:32.095Z,0
2019-03-30T01:40:33.407Z,0
2019-03-30T01:41:34.048Z,0
2019-03-30T01:42:35.093Z,0
2019-03-30T01:43:36.430Z,0
2019-03-30T01:44:37.187Z,0
2019-03-30T01:45:37.778Z,0
2019-03-30T01:46:38.536Z,0
2019-03-30T01:47:39.300Z,0
2019-03-30T01:48:39.781Z,0
2019-03-30T01:49:40.542Z,0
2019-03-30T01:50:41.301Z,0
2019-03-30T01:51:41.224Z,0
2019-03-30T01:52:41.706Z,0
2019-03-30T01:53:42.740Z,0
2019-03-30T01:54:43.774Z,0
2019-03-30T01:55:44.534Z,0
2019-03-30T01:56:45.568Z,0
2019-03-30T01:57:47.195Z,0
2019-03-30T01:58:47.200Z,0
2019-03-30T01:59:48.432Z,0
2019-03-30T02:00:49.115Z,0
2019-03-30T02:01:48.673Z,0
2019-03-30T02:02:49.437Z,0
2019-03-30T02:03:50.560Z,0
2019-03-30T02:04:51.053Z,0
2019-03-30T02:05:52.101Z,0
2019-03-30T02:06:53.408Z,0
2019-03-30T02:07:54.463Z,0
2019-03-30T02:08:55.216Z,0
2019-03-30T02:09:56.246Z,0
2019-03-30T02:10:56.445Z,0
2019-03-30T02:11:56.805Z,0
2019-03-30T02:12:57.288Z,0
2019-03-30T02:13:58.119Z,0
2019-03-30T02:14:59.738Z,0
2019-03-30T02:15:59.941Z,0
2019-03-30T02:17:00.434Z,0
2019-03-30T02:18:00.913Z,0
2019-03-30T02:19:01.394Z,0
2019-03-30T02:20:03.203Z,0
2019-03-30T02:21:04.239Z,0
2019-03-30T02:22:04.745Z,0
2019-03-30T02:23:05.218Z,0
2019-03-30T02:24:05.704Z,0
2019-03-30T02:25:07.028Z,0
2019-03-30T02:26:07.509Z,0
2019-03-30T02:27:08.282Z,0
2019-03-30T02:28:09.730Z,0
2019-03-30T02:29:10.762Z,0
2019-03-30T02:30:12.112Z,0
2019-03-30T02:31:13.209Z,0
2019-03-30T02:32:14.854Z,0
2019-03-30T02:33:14.928Z,0
2019-03-30T02:34:16.543Z,0
2019-03-30T02:35:16.879Z,0
2019-03-30T02:36:18.409Z,0
2019-03-30T02:37:19.456Z,0
2019-03-30T02:38:21.633Z,0
2019-03-30T02:39:20.696Z,0
2019-03-30T02:40:22.316Z,0
2019-03-30T02:41:22.515Z,0
2019-03-30T02:42:23.586Z,0
2019-03-30T02:43:24.217Z,0
2019-03-30T02:44:25.091Z,0
2019-03-30T02:45:25.165Z,0
2019-03-30T02:46:26.085Z,0
2019-03-30T02:47:26.122Z,0
2019-03-30T02:48:28.305Z,0
2019-03-30T02:49:28.097Z,0
2019-03-30T02:50:29.428Z,0
2019-03-30T02:51:28.922Z,0
2019-03-30T02:52:29.800Z,0
2019-03-30T02:53:31.682Z,0
2019-03-30T02:54:31.836Z,0
2019-03-30T02:55:33.156Z,0
2019-03-30T02:56:33.202Z,0
2019-03-30T02:57:34.822Z,0
2019-03-30T02:58:36.453Z,0
2019-03-30T02:59:37.390Z,0
2019-03-30T03:00:37.825Z,0
2019-03-30T03:01:39.466Z,0
2019-03-30T03:02:40.281Z,0
2019-03-30T03:03:41.064Z,0
2019-03-30T03:04:42.106Z,0
2019-03-30T03:05:43.768Z,0
2019-03-30T03:06:44.379Z,0
2019-03-30T03:07:44.440Z,0
2019-03-30T03:08:45.524Z,0
2019-03-30T03:09:46.565Z,0
2019-03-30T03:10:46.873Z,0
2019-03-30T03:11:46.910Z,0
2019-03-30T03:12:47.448Z,0
2019-03-30T03:13:48.798Z,0
2019-03-30T03:14:48.840Z,0
2019-03-30T03:15:49.186Z,0
2019-03-30T03:16:50.513Z,0
2019-03-30T03:17:50.626Z,0
2019-03-30T03:18:52.001Z,0
2019-03-30T03:19:52.327Z,0
2019-03-30T03:21:14.223Z,0
2019-03-30T03:22:14.770Z,0
2019-03-30T03:23:15.078Z,0
2019-03-30T03:24:16.068Z,0
2019-03-30T03:25:16.402Z,0
2019-03-30T03:26:16.244Z,0
2019-03-30T03:27:17.280Z,0
2019-03-30T03:28:18.434Z,0
2019-03-30T03:29:19.755Z,0
2019-03-30T03:30:21.064Z,0
2019-03-30T03:31:21.691Z,0
2019-03-30T03:32:23.154Z,0
2019-03-30T03:33:23.782Z,0
2019-03-30T03:34:24.381Z,0
2019-03-30T03:35:25.358Z,0
2019-03-30T03:36:26.274Z,0
2019-03-30T03:37:49.188Z,0
2019-03-30T03:38:48.099Z,0
2019-03-30T03:39:48.434Z,0
2019-03-30T03:40:49.507Z,0
2019-03-30T03:41:50.834Z,0
2019-03-30T03:42:52.194Z,0
2019-03-30T03:43:53.350Z,0
2019-03-30T03:44:53.814Z,0
2019-03-30T03:45:55.437Z,0
2019-03-30T03:46:55.215Z,0
2019-03-30T03:47:56.845Z,0
2019-03-30T03:48:57.485Z,0
2019-03-30T03:49:58.370Z,0
2019-03-30T03:50:58.766Z,0
2019-03-30T03:51:59.389Z,0
2019-03-30T03:53:00.462Z,0
2019-03-30T03:54:01.107Z,0
2019-03-30T03:55:02.594Z,0
2019-03-30T03:56:01.677Z,0
2019-03-30T03:57:03.048Z,0
2019-03-30T03:58:03.963Z,0
2019-03-30T03:59:04.914Z,0
2019-03-30T04:00:05.581Z,0
2019-03-30T04:01:05.971Z,0
2019-03-30T04:02:07.014Z,0
2019-03-30T04:03:07.772Z,0
2019-03-30T04:04:08.981Z,0
2019-03-30T04:05:10.262Z,0
2019-03-30T04:06:09.621Z,0
2019-03-30T04:07:09.676Z,0
2019-03-30T04:08:11.753Z,0
2019-03-30T04:09:12.374Z,0
2019-03-30T04:10:13.015Z,0
2019-03-30T04:11:13.684Z,0
2019-03-30T04:12:13.770Z,0
2019-03-30T04:13:14.639Z,0
2019-03-30T04:14:14.402Z,0
2019-03-30T04:15:16.071Z,0
2019-03-30T04:16:16.455Z,0
2019-03-30T04:17:17.232Z,0
2019-03-30T04:18:18.025Z,0
2019-03-30T04:19:19.297Z,0
2019-03-30T04:20:20.623Z,0
2019-03-30T04:21:21.498Z,0
2019-03-30T04:22:22.092Z,0
2019-03-30T04:23:21.862Z,0
2019-03-30T04:24:22.653Z,0
2019-03-30T04:25:23.334Z,0
2019-03-30T04:26:23.661Z,0
2019-03-30T04:27:24.126Z,0
2019-03-30T04:28:25.569Z,0
2019-03-30T04:29:25.924Z,0
2019-03-30T04:30:25.997Z,0
2019-03-30T04:31:27.066Z,0
2019-03-30T04:32:27.850Z,0
2019-03-30T04:33:28.606Z,0
2019-03-30T04:34:29.930Z,0
2019-03-30T04:35:30.583Z,0
2019-03-30T04:36:31.181Z,0
2019-03-30T04:37:32.061Z,0
2019-03-30T04:38:32.662Z,0
2019-03-30T04:39:33.204Z,0
2019-03-30T04:40:32.685Z,0
2019-03-30T04:41:33.732Z,0
2019-03-30T04:42:34.218Z,0
2019-03-30T04:43:34.988Z,0
2019-03-30T04:44:36.325Z,0
2019-03-30T04:45:38.210Z,0
2019-03-30T04:46:37.983Z,0
2019-03-30T04:47:39.303Z,0
2019-03-30T04:48:39.804Z,0
2019-03-30T04:49:41.426Z,0
2019-03-30T04:50:41.240Z,0
2019-03-30T04:51:41.999Z,0
2019-03-30T04:52:42.853Z,0
2019-03-30T04:53:43.890Z,0
2019-03-30T04:54:44.010Z,5.63
2019-03-30T04:55:45.054Z,5.63
2019-03-30T04:56:46.095Z,5.63
2019-03-30T04:57:51.589Z,5.63
2019-03-30T04:58:46.800Z,5.63
2019-03-30T04:59:47.253Z,5.63
2019-03-30T05:00:47.741Z,5.63
2019-03-30T05:01:48.787Z,5.63
2019-03-30T05:02:49.593Z,11.25
2019-03-30T05:03:50.713Z,11.25
2019-03-30T05:04:51.212Z,11.25
2019-03-30T05:05:52.267Z,11.25
2019-03-30T05:06:53.130Z,16.88
2019-03-30T05:07:54.448Z,16.88
2019-03-30T05:08:55.219Z,16.88
2019-03-30T05:09:55.863Z,22.5
2019-03-30T05:10:56.346Z,22.5
2019-03-30T05:11:57.114Z,28.13
2019-03-30T05:12:57.898Z,28.13
2019-03-30T05:13:57.699Z,28.13
2019-03-30T05:14:58.183Z,33.75
2019-03-30T05:15:59.231Z,33.75
2019-03-30T05:17:00.010Z,39.38
2019-03-30T05:18:01.048Z,45
2019-03-30T05:19:02.094Z,45
2019-03-30T05:20:02.465Z,45
2019-03-30T05:21:03.551Z,45
2019-03-30T05:22:18.922Z,50.63
2019-03-30T05:23:14.014Z,50.63
2019-03-30T05:24:14.884Z,56.25
2019-03-30T05:25:15.375Z,56.25
2019-03-30T05:26:15.854Z,61.88
2019-03-30T05:27:16.612Z,61.88
2019-03-30T05:28:16.947Z,67.5
2019-03-30T05:29:18.271Z,67.5
2019-03-30T05:30:19.036Z,73.13
2019-03-30T05:31:19.800Z,73.13
2019-03-30T05:32:20.284Z,73.13
2019-03-30T05:33:08.121Z,78.75
2019-03-30T05:34:03.715Z,78.75
2019-03-30T05:35:04.764Z,84.38
2019-03-30T05:36:05.809Z,90
2019-03-30T05:37:06.412Z,95.63
2019-03-30T05:38:07.180Z,95.63
2019-03-30T05:39:08.312Z,101.25
2019-03-30T05:40:09.082Z,106.88
2019-03-30T05:41:10.406Z,106.88
2019-03-30T05:42:10.728Z,112.5
2019-03-30T05:43:12.044Z,118.13
2019-03-30T05:44:12.901Z,118.13
2019-03-30T05:45:13.946Z,123.75
2019-03-30T05:46:14.444Z,129.38
2019-03-30T05:47:15.206Z,129.38
2019-03-30T05:48:16.528Z,135
2019-03-30T05:49:16.287Z,135
2019-03-30T05:50:17.324Z,135
2019-03-30T05:51:17.809Z,140.63
2019-03-30T05:52:28.960Z,146.25
2019-03-30T05:53:29.732Z,157.5
2019-03-30T05:54:30.509Z,151.88
2019-03-30T05:55:31.276Z,151.88
2019-03-30T05:56:32.870Z,157.5
2019-03-30T05:57:32.380Z,163.13
2019-03-30T05:58:33.433Z,168.75
2019-03-30T05:59:33.929Z,168.75
2019-03-30T06:00:34.704Z,174.38
2019-03-30T06:01:35.754Z,174.38
2019-03-30T06:02:36.517Z,180
2019-03-30T06:03:37.326Z,180
2019-03-30T06:04:37.809Z,185.63
2019-03-30T06:05:38.577Z,185.63
2019-03-30T06:06:38.837Z,191.25
2019-03-30T06:07:39.600Z,191.25
2019-03-30T06:08:40.115Z,191.25
2019-03-30T06:09:40.875Z,191.25
2019-03-30T06:10:41.639Z,196.88
2019-03-30T06:11:42.396Z,196.88
2019-03-30T06:12:42.882Z,202.5
2019-03-30T06:13:44.102Z,202.5
2019-03-30T06:14:45.151Z,208.13
2019-03-30T06:15:45.362Z,292.5
2019-03-30T06:16:46.123Z,511.88
2019-03-30T06:17:47.192Z,663.75
2019-03-30T06:18:47.471Z,630
2019-03-30T06:19:47.959Z,663.75
2019-03-30T06:20:48.798Z,697.5
2019-03-30T06:21:49.336Z,826.88
2019-03-30T06:22:50.387Z,843.75
2019-03-30T06:23:50.903Z,849.38
2019-03-30T06:24:51.958Z,888.75
2019-03-30T06:25:53.008Z,905.63
2019-03-30T06:26:53.225Z,922.5
2019-03-30T06:27:53.740Z,911.25
2019-03-30T06:28:54.227Z,900
2019-03-30T06:29:54.746Z,888.75
2019-03-30T06:30:55.332Z,922.5
2019-03-30T06:31:57.248Z,945
2019-03-30T06:32:56.066Z,973.13
2019-03-30T06:33:56.318Z,995.63
2019-03-30T06:34:56.814Z,1046.25
2019-03-30T06:35:57.866Z,1063.13
2019-03-30T06:36:58.934Z,1029.38
2019-03-30T06:37:59.782Z,1006.88
2019-03-30T06:39:00.871Z,978.75
2019-03-30T06:40:00.874Z,928.13
2019-03-30T06:41:01.745Z,1018.13
2019-03-30T06:42:02.524Z,1068.75
2019-03-30T06:43:03.310Z,961.88
2019-03-30T06:44:04.571Z,961.88
2019-03-30T06:45:05.358Z,1001.25
2019-03-30T06:46:05.863Z,1141.88
2019-03-30T06:47:06.112Z,1130.63
2019-03-30T06:48:06.906Z,871.88
2019-03-30T06:49:07.406Z,815.63
2019-03-30T06:50:07.905Z,883.13
2019-03-30T06:51:08.691Z,871.88
2019-03-30T06:52:10.130Z,1029.38
2019-03-30T06:53:10.910Z,1153.13
2019-03-30T06:54:15.237Z,928.13
2019-03-30T06:55:12.293Z,748.13
2019-03-30T06:56:13.206Z,1035
2019-03-30T06:57:13.427Z,793.13
2019-03-30T06:58:14.219Z,686.25
2019-03-30T06:59:14.450Z,843.75
2019-03-30T07:00:15.535Z,804.38
2019-03-30T07:01:16.876Z,916.88
2019-03-30T07:02:16.661Z,1080
2019-03-30T07:03:17.999Z,1035
2019-03-30T07:04:18.505Z,916.88
2019-03-30T07:05:18.756Z,849.38
2019-03-30T07:06:19.816Z,826.88
2019-03-30T07:07:20.318Z,888.75
2019-03-30T07:08:20.542Z,967.5
2019-03-30T07:09:22.730Z,1001.25
2019-03-30T07:10:22.802Z,1186.88
2019-03-30T07:11:23.737Z,1220.63
2019-03-30T07:12:24.237Z,1119.38
2019-03-30T07:13:24.837Z,1260
2019-03-30T07:14:26.082Z,1395
2019-03-30T07:15:26.871Z,1299.38
2019-03-30T07:16:27.936Z,1260
2019-03-30T07:17:28.995Z,1513.13
2019-03-30T07:18:28.772Z,1518.75
2019-03-30T07:19:29.270Z,1456.88
2019-03-30T07:20:29.780Z,1254.38
2019-03-30T07:21:30.842Z,1215
2019-03-30T07:22:31.357Z,1254.38
2019-03-30T07:23:32.141Z,1569.38
2019-03-30T07:24:32.387Z,1541.25
2019-03-30T07:25:33.768Z,1254.38
2019-03-30T07:26:34.561Z,1063.13
2019-03-30T07:27:34.791Z,736.88
2019-03-30T07:28:35.572Z,607.5
2019-03-30T07:29:36.072Z,354.38
2019-03-30T07:30:36.854Z,343.13
2019-03-30T07:31:37.983Z,472.5
2019-03-30T07:32:38.487Z,652.5
2019-03-30T07:33:39.263Z,669.38
2019-03-30T07:34:43.860Z,905.63
2019-03-30T07:35:40.916Z,731.25
2019-03-30T07:36:41.138Z,1080
2019-03-30T07:37:41.650Z,1108.13
2019-03-30T07:38:41.876Z,1276.88
2019-03-30T07:39:43.506Z,1260
2019-03-30T07:40:43.286Z,1215
2019-03-30T07:41:44.413Z,1237.5
2019-03-30T07:42:44.914Z,1012.5
2019-03-30T07:43:45.412Z,916.88
2019-03-30T07:44:46.643Z,1046.25
2019-03-30T07:45:46.433Z,1023.75
2019-03-30T07:46:46.938Z,1158.75
2019-03-30T07:47:47.158Z,1108.13
2019-03-30T07:48:47.384Z,1518.75
2019-03-30T07:49:48.163Z,1631.25
2019-03-30T07:50:49.214Z,1518.75
2019-03-30T07:51:49.724Z,1586.25
2019-03-30T07:52:50.228Z,1586.25
2019-03-30T07:53:51.300Z,1507.5
2019-03-30T07:54:52.394Z,1580.63
2019-03-30T07:55:52.892Z,1428.75
2019-03-30T07:56:14.241Z,1372.5
2019-03-30T07:57:19.504Z,1406.25
2019-03-30T07:57:24.356Z,1406.25
2019-03-30T07:58:25.128Z,1113.75
2019-03-30T07:59:26.253Z,1417.5
2019-03-30T08:00:33.034Z,1451.25
2019-03-30T08:00:36.966Z,1434.38
2019-03-30T08:01:37.932Z,1361.25
2019-03-30T08:02:37.994Z,1288.13
2019-03-30T08:03:38.234Z,1254.38
2019-03-30T08:04:38.461Z,1552.5
2019-03-30T08:05:39.249Z,1378.13
2019-03-30T08:06:39.756Z,1305
2019-03-30T08:07:41.090Z,1321.88
2019-03-30T08:08:42.539Z,1175.63
2019-03-30T08:09:43.318Z,1035
2019-03-30T08:10:44.665Z,1186.88
2019-03-30T08:11:44.263Z,1462.5
2019-03-30T08:12:44.771Z,1411.88
2019-03-30T08:13:46.115Z,1248.75
2019-03-30T08:14:47.487Z,1361.25
2019-03-30T08:15:47.710Z,1546.88
2019-03-30T08:16:49.051Z,1608.75
2019-03-30T08:17:49.300Z,1833.75
2019-03-30T08:18:50.084Z,1895.63
2019-03-30T08:19:52.632Z,1653.75
2019-03-30T08:20:53.221Z,1344.38
2019-03-30T08:21:53.502Z,1136.25
2019-03-30T08:22:54.298Z,1147.5
2019-03-30T08:23:54.804Z,1108.13
2019-03-30T08:24:55.584Z,1333.13
2019-03-30T08:25:56.139Z,1355.63
2019-03-30T08:26:56.943Z,1147.5
2019-03-30T08:27:58.562Z,1417.5
2019-03-30T08:28:58.624Z,1597.5
2019-03-30T08:29:59.133Z,1136.25
2019-03-30T08:30:59.923Z,1119.38
2019-03-30T08:32:00.612Z,1665
2019-03-30T08:33:01.114Z,1676.25
2019-03-30T08:34:01.900Z,1648.13
2019-03-30T08:35:03.012Z,1586.25
2019-03-30T08:36:02.918Z,1659.38
2019-03-30T08:37:04.022Z,1681.88
2019-03-30T08:38:05.108Z,1693.13
2019-03-30T08:39:05.720Z,1501.88
2019-03-30T08:40:04.950Z,1428.75
2019-03-30T08:41:05.800Z,1546.88
2019-03-30T08:42:06.041Z,1524.38
2019-03-30T08:43:06.859Z,1608.75
2019-03-30T08:44:07.358Z,1524.38
2019-03-30T08:45:07.586Z,1243.13
2019-03-30T08:46:08.365Z,1355.63
2019-03-30T08:47:08.593Z,1423.13
2019-03-30T08:48:09.984Z,669.38
2019-03-30T08:49:10.764Z,607.5
2019-03-30T08:50:11.547Z,714.38
2019-03-30T08:51:11.795Z,568.13
2019-03-30T08:52:12.507Z,461.25
2019-03-30T08:53:13.562Z,450
2019-03-30T08:54:15.249Z,1226.25
2019-03-30T08:55:15.118Z,1912.5
2019-03-30T08:56:15.617Z,1957.5
2019-03-30T08:57:16.121Z,1749.38
2019-03-30T08:58:18.063Z,1985.63
2019-03-30T08:59:18.094Z,2013.75
2019-03-30T09:00:18.785Z,1929.38
2019-03-30T09:01:19.552Z,2131.88
2019-03-30T09:02:23.400Z,1130.63
2019-03-30T09:03:26.828Z,1260
2019-03-30T09:03:45.206Z,1625.63
2019-03-30T09:04:42.028Z,2160
2019-03-30T09:05:42.841Z,1749.38
2019-03-30T09:06:43.626Z,1136.25
2019-03-30T09:07:44.130Z,1231.88
2019-03-30T09:08:44.912Z,1248.75
2019-03-30T09:09:45.691Z,995.63
2019-03-30T09:10:46.565Z,669.38
2019-03-30T09:11:47.345Z,871.88
2019-03-30T09:12:47.567Z,967.5
2019-03-30T09:13:48.346Z,826.88
2019-03-30T09:14:48.601Z,731.25
2019-03-30T09:15:49.385Z,573.75
2019-03-30T09:16:50.438Z,528.75
2019-03-30T09:17:50.938Z,838.13
2019-03-30T09:18:52.014Z,1192.5
2019-03-30T09:19:53.068Z,1411.88
2019-03-30T09:20:54.133Z,1378.13
2019-03-30T09:21:54.742Z,1316.25
2019-03-30T09:22:55.316Z,1248.75
2019-03-30T09:24:12.496Z,1231.88
2019-03-30T09:24:18.161Z,1265.63
2019-03-30T09:25:17.957Z,1378.13
2019-03-30T09:26:19.496Z,1355.63
2019-03-30T09:27:19.999Z,1479.38
2019-03-30T09:28:20.504Z,1777.5
2019-03-30T09:29:21.845Z,2120.63
2019-03-30T09:30:22.909Z,2030.63
2019-03-30T09:31:23.041Z,2193.75
2019-03-30T09:32:23.548Z,2188.13
2019-03-30T09:33:25.907Z,1974.38
2019-03-30T09:34:25.488Z,1839.38
2019-03-30T09:35:26.224Z,1951.88
2019-03-30T09:36:28.489Z,1192.5
2019-03-30T09:37:28.960Z,990
2019-03-30T09:38:29.753Z,1333.13
2019-03-30T09:39:31.569Z,1518.75
2019-03-30T09:40:33.051Z,1586.25
2019-03-30T09:41:32.000Z,1794.38
2019-03-30T09:42:33.056Z,1935
2019-03-30T09:43:32.843Z,2086.88
2019-03-30T09:44:33.706Z,2300.63
2019-03-30T09:45:33.437Z,2160
2019-03-30T09:46:33.667Z,2306.25
2019-03-30T09:47:34.171Z,2081.25
2019-03-30T09:48:34.671Z,2081.25
2019-03-30T09:49:35.269Z,1710
2019-03-30T09:50:35.863Z,1546.88
2019-03-30T09:51:36.427Z,2008.13
2019-03-30T09:52:38.104Z,2058.75
2019-03-30T09:53:37.895Z,2278.13
2019-03-30T09:54:40.949Z,2598.75
2019-03-30T09:55:39.634Z,2525.63
2019-03-30T09:56:40.753Z,2188.13
2019-03-30T09:57:41.308Z,1569.38
2019-03-30T09:58:42.094Z,1563.75
2019-03-30T09:59:42.324Z,2013.75
2019-03-30T10:00:42.573Z,2041.88
2019-03-30T10:01:43.629Z,1575
2019-03-30T10:02:44.336Z,1479.38
2019-03-30T10:03:45.199Z,2058.75
2019-03-30T10:04:45.715Z,1935
2019-03-30T10:05:46.801Z,1856.25
2019-03-30T10:06:47.586Z,2210.63
2019-03-30T10:07:49.060Z,2328.75
2019-03-30T10:08:48.998Z,2424.38
2019-03-30T10:09:50.225Z,2548.13
2019-03-30T10:10:51.293Z,2593.13
2019-03-30T10:11:51.348Z,2610
2019-03-30T10:12:52.228Z,2728.13
2019-03-30T10:13:52.573Z,2638.13
2019-03-30T10:14:53.617Z,2638.13
2019-03-30T10:15:53.960Z,2655
2019-03-30T10:16:54.744Z,2705.63
2019-03-30T10:17:55.451Z,2750.63
2019-03-30T10:18:56.129Z,2739.38
2019-03-30T10:20:07.830Z,2716.88
2019-03-30T10:21:07.333Z,2700
2019-03-30T10:22:08.477Z,2705.63
2019-03-30T10:23:08.256Z,2666.25
2019-03-30T10:24:08.788Z,2711.25
2019-03-30T10:25:09.296Z,2705.63
2019-03-30T10:26:09.517Z,2683.13
2019-03-30T10:27:10.178Z,2683.13
2019-03-30T10:28:10.831Z,2677.5
2019-03-30T10:29:11.370Z,2694.38
2019-03-30T10:30:12.684Z,2688.75
2019-03-30T10:31:12.957Z,2705.63
2019-03-30T10:32:14.631Z,2666.25
2019-03-30T10:33:15.357Z,2666.25
2019-03-30T10:34:15.203Z,2688.75
2019-03-30T10:35:16.265Z,2705.63
2019-03-30T10:36:17.330Z,2711.25
2019-03-30T10:37:18.475Z,2711.25
2019-03-30T10:38:19.343Z,2666.25
2019-03-30T10:39:19.848Z,2632.5
2019-03-30T10:40:23.762Z,2621.25
2019-03-30T10:41:23.556Z,2638.13
2019-03-30T10:42:24.436Z,2626.88
2019-03-30T10:43:25.500Z,2604.38
2019-03-30T10:44:25.747Z,2598.75
2019-03-30T10:45:26.532Z,2587.5
2019-03-30T10:46:27.488Z,2587.5
2019-03-30T10:47:27.994Z,2604.38
2019-03-30T10:48:28.223Z,2632.5
2019-03-30T10:49:28.744Z,2621.25
2019-03-30T10:50:30.864Z,2610
2019-03-30T10:51:31.288Z,2615.63
2019-03-30T10:52:31.520Z,2581.88
2019-03-30T10:53:32.611Z,2570.63
2019-03-30T10:54:33.672Z,2632.5
2019-03-30T10:55:34.659Z,2688.75
2019-03-30T10:56:35.737Z,2705.63
2019-03-30T10:57:36.894Z,2688.75
2019-03-30T10:58:38.558Z,2643.75
2019-03-30T10:59:38.986Z,2649.38
2019-03-30T11:00:39.265Z,2621.25
2019-03-30T11:01:40.226Z,2632.5
2019-03-30T11:02:39.966Z,2615.63
2019-03-30T11:03:40.748Z,2638.13
2019-03-30T11:04:41.301Z,2632.5
2019-03-30T11:05:42.140Z,2598.75
2019-03-30T11:06:42.456Z,2593.13
2019-03-30T11:07:43.582Z,2604.38
2019-03-30T11:08:44.446Z,2587.5
2019-03-30T11:09:44.737Z,2621.25
2019-03-30T11:10:45.523Z,2643.75
2019-03-30T11:11:46.524Z,2660.63
2019-03-30T11:12:47.306Z,2666.25
2019-03-30T11:13:48.386Z,2655
2019-03-30T11:14:49.325Z,2638.13
2019-03-30T11:15:50.122Z,2626.88
2019-03-30T11:16:50.597Z,2576.25
2019-03-30T11:17:52.026Z,2525.63
2019-03-30T11:18:52.929Z,2536.88
2019-03-30T11:19:54.416Z,2553.75
2019-03-30T11:20:54.246Z,2553.75
2019-03-30T11:21:54.787Z,2565
2019-03-30T11:22:55.672Z,2593.13
2019-03-30T11:23:56.519Z,2593.13
2019-03-30T11:25:10.821Z,2491.88
2019-03-30T11:26:07.500Z,2458.13
2019-03-30T11:27:08.292Z,2463.75
2019-03-30T11:28:10.001Z,2413.13
2019-03-30T11:29:09.861Z,2435.63
2019-03-30T11:30:10.646Z,2497.5
2019-03-30T11:31:12.285Z,2497.5
2019-03-30T11:32:11.796Z,2469.38
2019-03-30T11:33:12.026Z,2424.38
2019-03-30T11:34:12.979Z,2362.5
2019-03-30T11:35:14.202Z,2323.13
2019-03-30T11:36:18.345Z,2334.38
2019-03-30T11:37:16.015Z,2351.25
2019-03-30T11:38:16.521Z,2373.75
2019-03-30T11:39:17.315Z,2328.75
2019-03-30T11:40:17.545Z,2266.88
2019-03-30T11:41:18.731Z,2227.5
2019-03-30T11:42:19.360Z,2148.75
2019-03-30T11:43:19.705Z,2182.5
2019-03-30T11:44:20.492Z,2221.88
2019-03-30T11:45:21.005Z,2255.63
2019-03-30T11:46:21.926Z,2266.88
2019-03-30T11:47:23.346Z,2278.13
2019-03-30T11:48:24.985Z,2261.25
2019-03-30T11:49:24.490Z,2238.75
2019-03-30T11:50:25.903Z,2154.38
2019-03-30T11:51:26.493Z,2053.13
2019-03-30T11:52:26.998Z,2019.38
2019-03-30T11:53:28.819Z,2036.25
2019-03-30T11:54:28.594Z,2064.38
2019-03-30T11:55:29.414Z,2103.75
2019-03-30T11:56:29.958Z,2148.75
2019-03-30T11:57:30.810Z,2210.63
2019-03-30T11:58:31.403Z,2238.75
2019-03-30T11:59:31.520Z,2221.88
2019-03-30T12:00:32.304Z,2193.75
2019-03-30T12:01:32.880Z,2143.13
2019-03-30T12:02:33.728Z,2103.75
2019-03-30T12:03:33.984Z,2109.38
2019-03-30T12:04:34.784Z,2115
2019-03-30T12:05:35.593Z,2109.38
2019-03-30T12:06:36.416Z,2137.5
2019-03-30T12:07:36.979Z,2154.38
2019-03-30T12:08:37.486Z,2143.13
2019-03-30T12:09:38.845Z,2131.88
2019-03-30T12:10:39.903Z,2148.75
2019-03-30T12:11:39.688Z,2126.25
2019-03-30T12:12:40.745Z,2103.75
2019-03-30T12:13:41.251Z,2120.63
2019-03-30T12:14:41.754Z,2115
2019-03-30T12:15:43.097Z,2120.63
2019-03-30T12:16:43.859Z,2131.88
2019-03-30T12:17:44.916Z,2115
2019-03-30T12:18:46.294Z,2109.38
2019-03-30T12:19:47.370Z,2115
2019-03-30T12:20:47.924Z,2131.88
2019-03-30T12:21:48.939Z,2143.13
2019-03-30T12:22:49.358Z,2160
2019-03-30T12:23:49.581Z,2165.63
2019-03-30T12:24:50.364Z,2148.75
2019-03-30T12:25:50.870Z,2143.13
2019-03-30T12:26:51.415Z,2103.75
2019-03-30T12:27:52.481Z,2154.38
2019-03-30T12:28:53.065Z,2126.25
2019-03-30T12:29:53.858Z,2103.75
2019-03-30T12:30:54.649Z,2053.13
2019-03-30T12:31:55.781Z,2008.13
2019-03-30T12:32:55.862Z,1996.88
2019-03-30T12:33:56.367Z,2008.13
2019-03-30T12:34:56.874Z,2025
2019-03-30T12:35:58.222Z,2002.5
2019-03-30T12:36:58.334Z,1974.38
2019-03-30T12:37:59.150Z,1929.38
2019-03-30T12:39:00.489Z,1912.5
2019-03-30T12:40:01.108Z,1918.13
2019-03-30T12:41:01.653Z,1935
2019-03-30T12:42:02.740Z,1957.5
2019-03-30T12:43:03.841Z,1935
2019-03-30T12:44:04.351Z,1918.13
2019-03-30T12:45:04.886Z,1890
2019-03-30T12:46:05.388Z,1901.25
2019-03-30T12:47:06.614Z,1923.75
2019-03-30T12:48:06.689Z,1935
2019-03-30T12:49:07.483Z,1940.63
2019-03-30T12:50:08.264Z,1923.75
2019-03-30T12:51:08.494Z,1912.5
2019-03-30T12:52:09.476Z,1912.5
2019-03-30T12:53:09.984Z,1906.88
2019-03-30T12:54:11.322Z,1918.13
2019-03-30T12:55:12.180Z,1935
2019-03-30T12:56:12.405Z,1951.88
2019-03-30T12:57:13.662Z,1951.88
2019-03-30T12:58:14.521Z,1918.13
2019-03-30T12:59:15.580Z,1867.5
2019-03-30T13:00:15.378Z,1816.88
2019-03-30T13:01:26.888Z,1805.63
2019-03-30T13:02:27.143Z,1811.25
2019-03-30T13:03:27.647Z,1771.88
2019-03-30T13:04:28.435Z,1732.5
2019-03-30T13:05:29.212Z,1726.88
2019-03-30T13:06:30.552Z,1738.13
2019-03-30T13:07:30.616Z,1766.25
2019-03-30T13:08:31.715Z,1766.25
2019-03-30T13:09:35.478Z,1760.63
2019-03-30T13:10:32.266Z,1755
2019-03-30T13:11:32.758Z,1743.75
2019-03-30T13:12:32.785Z,1732.5
2019-03-30T13:13:33.849Z,1732.5
2019-03-30T13:14:34.632Z,1738.13
2019-03-30T13:15:35.413Z,1726.88
2019-03-30T13:16:35.649Z,1738.13
2019-03-30T13:17:36.159Z,1749.38
2019-03-30T13:18:37.531Z,1681.88